sensor_id;sensor_type;location;lat;lon;timestamp;P1;durP1;ratioP1;P2;durP2;ratioP2
51664;SDS011;37751;52.408;12.536;2024-02-21T00:01:32;25.75;;;6.38;;
51664;SDS011;37751;52.408;12.536;2024-02-21T00:04:03;18.10;;;5.10;;
51664;SDS011;37751;52.408;12.536;2024-02-21T00:06:34;30.25;;;6.13;;
51664;SDS011;37751;52.408;12.536;2024-02-21T00:09:08;25.88;;;5.20;;
51664;SDS011;37751;52.408;12.536;2024-02-21T00:11:41;28.90;;;5.32;;
51664;SDS011;37751;52.408;12.536;2024-02-21T00:14:12;17.42;;;5.47;;
51664;SDS011;37751;52.408;12.536;2024-02-21T00:16:44;26.10;;;5.63;;
51664;SDS011;37751;52.408;12.536;2024-02-21T00:19:15;28.02;;;5.35;;
51664;SDS011;37751;52.408;12.536;2024-02-21T00:21:46;24.17;;;5.03;;
51664;SDS011;37751;52.408;12.536;2024-02-21T00:24:20;22.63;;;5.22;;
51664;SDS011;37751;52.408;12.536;2024-02-21T00:26:51;18.67;;;4.97;;
51664;SDS011;37751;52.408;12.536;2024-02-21T00:29:24;24.30;;;5.78;;
51664;SDS011;37751;52.408;12.536;2024-02-21T00:31:56;26.00;;;5.60;;
51664;SDS011;37751;52.408;12.536;2024-02-21T00:34:24;20.45;;;5.90;;
51664;SDS011;37751;52.408;12.536;2024-02-21T00:36:56;20.73;;;5.13;;
51664;SDS011;37751;52.408;12.536;2024-02-21T00:39:30;27.95;;;5.80;;
51664;SDS011;37751;52.408;12.536;2024-02-21T00:42:01;16.33;;;5.35;;
51664;SDS011;37751;52.408;12.536;2024-02-21T00:44:34;23.40;;;5.53;;
51664;SDS011;37751;52.408;12.536;2024-02-21T00:47:05;22.63;;;5.57;;
51664;SDS011;37751;52.408;12.536;2024-02-21T00:49:37;20.98;;;4.82;;
51664;SDS011;37751;52.408;12.536;2024-02-21T00:52:08;24.27;;;5.82;;
51664;SDS011;37751;52.408;12.536;2024-02-21T00:54:42;16.35;;;4.55;;
51664;SDS011;37751;52.408;12.536;2024-02-21T00:57:20;23.83;;;4.88;;
51664;SDS011;37751;52.408;12.536;2024-02-21T00:59:51;24.08;;;4.00;;
51664;SDS011;37751;52.408;12.536;2024-02-21T01:02:22;18.95;;;5.05;;
51664;SDS011;37751;52.408;12.536;2024-02-21T01:04:54;22.67;;;5.82;;
51664;SDS011;37751;52.408;12.536;2024-02-21T01:07:25;27.05;;;5.43;;
51664;SDS011;37751;52.408;12.536;2024-02-21T01:09:58;24.98;;;4.57;;
51664;SDS011;37751;52.408;12.536;2024-02-21T01:12:29;18.08;;;4.82;;
51664;SDS011;37751;52.408;12.536;2024-02-21T01:15:01;18.45;;;4.07;;
51664;SDS011;37751;52.408;12.536;2024-02-21T01:17:33;19.65;;;4.45;;
51664;SDS011;37751;52.408;12.536;2024-02-21T01:20:05;20.35;;;4.85;;
51664;SDS011;37751;52.408;12.536;2024-02-21T01:22:37;20.08;;;4.50;;
51664;SDS011;37751;52.408;12.536;2024-02-21T01:25:11;23.63;;;5.63;;
51664;SDS011;37751;52.408;12.536;2024-02-21T01:27:43;15.93;;;4.88;;
51664;SDS011;37751;52.408;12.536;2024-02-21T01:30:14;23.00;;;5.22;;
51664;SDS011;37751;52.408;12.536;2024-02-21T01:32:45;20.50;;;4.22;;
51664;SDS011;37751;52.408;12.536;2024-02-21T01:35:17;27.97;;;5.33;;
51664;SDS011;37751;52.408;12.536;2024-02-21T01:37:48;26.73;;;5.82;;
51664;SDS011;37751;52.408;12.536;2024-02-21T01:40:25;20.85;;;5.47;;
51664;SDS011;37751;52.408;12.536;2024-02-21T01:42:56;17.90;;;5.80;;
51664;SDS011;37751;52.408;12.536;2024-02-21T01:45:27;24.13;;;5.77;;
51664;SDS011;37751;52.408;12.536;2024-02-21T01:47:58;24.15;;;5.85;;
51664;SDS011;37751;52.408;12.536;2024-02-21T01:50:29;23.88;;;5.50;;
51664;SDS011;37751;52.408;12.536;2024-02-21T01:53:00;25.60;;;5.77;;
51664;SDS011;37751;52.408;12.536;2024-02-21T01:55:34;27.35;;;5.85;;
51664;SDS011;37751;52.408;12.536;2024-02-21T01:58:09;23.30;;;5.97;;
51664;SDS011;37751;52.408;12.536;2024-02-21T02:00:40;24.75;;;5.82;;
51664;SDS011;37751;52.408;12.536;2024-02-21T02:03:13;21.85;;;6.05;;
51664;SDS011;37751;52.408;12.536;2024-02-21T02:05:45;24.40;;;6.03;;
51664;SDS011;37751;52.408;12.536;2024-02-21T02:08:18;18.92;;;5.40;;
51664;SDS011;37751;52.408;12.536;2024-02-21T02:10:52;21.45;;;5.05;;
51664;SDS011;37751;52.408;12.536;2024-02-21T02:13:24;26.03;;;6.03;;
51664;SDS011;37751;52.408;12.536;2024-02-21T02:15:56;21.27;;;6.63;;
51664;SDS011;37751;52.408;12.536;2024-02-21T02:18:27;22.37;;;5.87;;
51664;SDS011;37751;52.408;12.536;2024-02-21T02:20:58;30.55;;;6.72;;
51664;SDS011;37751;52.408;12.536;2024-02-21T02:23:32;20.97;;;6.50;;
51664;SDS011;37751;52.408;12.536;2024-02-21T02:26:04;24.07;;;5.47;;
51664;SDS011;37751;52.408;12.536;2024-02-21T02:28:35;27.48;;;6.63;;
51664;SDS011;37751;52.408;12.536;2024-02-21T02:31:06;29.38;;;6.45;;
51664;SDS011;37751;52.408;12.536;2024-02-21T02:33:37;36.50;;;7.03;;
51664;SDS011;37751;52.408;12.536;2024-02-21T02:36:08;22.23;;;5.73;;
51664;SDS011;37751;52.408;12.536;2024-02-21T02:38:42;30.05;;;7.20;;
51664;SDS011;37751;52.408;12.536;2024-02-21T02:41:13;30.05;;;6.68;;
51664;SDS011;37751;52.408;12.536;2024-02-21T02:43:45;28.87;;;6.73;;
51664;SDS011;37751;52.408;12.536;2024-02-21T02:46:17;26.53;;;7.27;;
51664;SDS011;37751;52.408;12.536;2024-02-21T02:48:48;24.97;;;6.63;;
51664;SDS011;37751;52.408;12.536;2024-02-21T02:51:20;27.87;;;7.10;;
51664;SDS011;37751;52.408;12.536;2024-02-21T02:53:54;18.00;;;5.87;;
51664;SDS011;37751;52.408;12.536;2024-02-21T02:56:25;27.80;;;7.90;;
51664;SDS011;37751;52.408;12.536;2024-02-21T02:58:56;24.42;;;7.15;;
51664;SDS011;37751;52.408;12.536;2024-02-21T03:01:27;29.10;;;7.47;;
51664;SDS011;37751;52.408;12.536;2024-02-21T03:03:58;24.97;;;6.90;;
51664;SDS011;37751;52.408;12.536;2024-02-21T03:06:30;24.58;;;7.95;;
51664;SDS011;37751;52.408;12.536;2024-02-21T03:09:05;30.83;;;6.97;;
51664;SDS011;37751;52.408;12.536;2024-02-21T03:11:37;31.17;;;7.70;;
51664;SDS011;37751;52.408;12.536;2024-02-21T03:14:10;24.43;;;7.53;;
51664;SDS011;37751;52.408;12.536;2024-02-21T03:16:41;31.20;;;7.43;;
51664;SDS011;37751;52.408;12.536;2024-02-21T03:19:12;20.07;;;6.90;;
51664;SDS011;37751;52.408;12.536;2024-02-21T03:21:44;28.07;;;7.77;;
51664;SDS011;37751;52.408;12.536;2024-02-21T03:24:18;30.50;;;8.20;;
51664;SDS011;37751;52.408;12.536;2024-02-21T03:26:50;24.77;;;7.78;;
51664;SDS011;37751;52.408;12.536;2024-02-21T03:29:21;25.43;;;7.20;;
51664;SDS011;37751;52.408;12.536;2024-02-21T03:31:52;20.27;;;8.00;;
51664;SDS011;37751;52.408;12.536;2024-02-21T03:34:23;28.70;;;8.20;;
51664;SDS011;37751;52.408;12.536;2024-02-21T03:36:54;35.20;;;8.00;;
51664;SDS011;37751;52.408;12.536;2024-02-21T03:39:30;30.07;;;7.30;;
51664;SDS011;37751;52.408;12.536;2024-02-21T03:42:02;30.70;;;7.33;;
51664;SDS011;37751;52.408;12.536;2024-02-21T03:44:34;26.43;;;7.40;;
51664;SDS011;37751;52.408;12.536;2024-02-21T03:47:05;31.43;;;7.30;;
51664;SDS011;37751;52.408;12.536;2024-02-21T03:49:38;29.23;;;8.50;;
51664;SDS011;37751;52.408;12.536;2024-02-21T03:52:10;30.73;;;7.93;;
51664;SDS011;37751;52.408;12.536;2024-02-21T03:54:43;22.90;;;7.13;;
51664;SDS011;37751;52.408;12.536;2024-02-21T03:57:15;22.67;;;7.83;;
51664;SDS011;37751;52.408;12.536;2024-02-21T03:59:46;23.67;;;8.70;;
51664;SDS011;37751;52.408;12.536;2024-02-21T04:02:20;24.53;;;7.47;;
51664;SDS011;37751;52.408;12.536;2024-02-21T04:04:51;30.53;;;8.03;;
51664;SDS011;37751;52.408;12.536;2024-02-21T04:07:22;28.20;;;7.40;;
51664;SDS011;37751;52.408;12.536;2024-02-21T04:09:56;28.50;;;9.23;;
51664;SDS011;37751;52.408;12.536;2024-02-21T04:12:27;24.93;;;8.67;;
51664;SDS011;37751;52.408;12.536;2024-02-21T04:14:58;34.13;;;9.53;;
51664;SDS011;37751;52.408;12.536;2024-02-21T04:17:29;32.57;;;8.87;;
51664;SDS011;37751;52.408;12.536;2024-02-21T04:20:01;30.00;;;9.30;;
51664;SDS011;37751;52.408;12.536;2024-02-21T04:22:38;28.40;;;9.63;;
51664;SDS011;37751;52.408;12.536;2024-02-21T04:25:12;33.03;;;10.07;;
51664;SDS011;37751;52.408;12.536;2024-02-21T04:27:43;29.97;;;10.40;;
51664;SDS011;37751;52.408;12.536;2024-02-21T04:30:14;29.03;;;8.80;;
51664;SDS011;37751;52.408;12.536;2024-02-21T04:32:45;25.70;;;9.33;;
51664;SDS011;37751;52.408;12.536;2024-02-21T04:35:17;30.23;;;9.87;;
51664;SDS011;37751;52.408;12.536;2024-02-21T04:37:48;28.80;;;8.80;;
51664;SDS011;37751;52.408;12.536;2024-02-21T04:40:23;28.67;;;10.20;;
51664;SDS011;37751;52.408;12.536;2024-02-21T04:42:54;37.63;;;11.27;;
51664;SDS011;37751;52.408;12.536;2024-02-21T04:45:26;28.53;;;9.80;;
51664;SDS011;37751;52.408;12.536;2024-02-21T04:47:58;29.50;;;9.10;;
51664;SDS011;37751;52.408;12.536;2024-02-21T04:50:29;29.43;;;8.90;;
51664;SDS011;37751;52.408;12.536;2024-02-21T04:53:00;32.63;;;9.33;;
51664;SDS011;37751;52.408;12.536;2024-02-21T04:55:34;24.57;;;9.67;;
51664;SDS011;37751;52.408;12.536;2024-02-21T04:58:05;24.03;;;8.90;;
51664;SDS011;37751;52.408;12.536;2024-02-21T05:00:36;21.83;;;9.43;;
51664;SDS011;37751;52.408;12.536;2024-02-21T05:03:08;24.33;;;10.00;;
51664;SDS011;37751;52.408;12.536;2024-02-21T05:05:39;21.10;;;9.47;;
51664;SDS011;37751;52.408;12.536;2024-02-21T05:08:10;26.73;;;9.80;;
51664;SDS011;37751;52.408;12.536;2024-02-21T05:10:44;26.50;;;9.07;;
51664;SDS011;37751;52.408;12.536;2024-02-21T05:13:16;23.02;;;9.10;;
51664;SDS011;37751;52.408;12.536;2024-02-21T05:15:47;32.42;;;10.77;;
51664;SDS011;37751;52.408;12.536;2024-02-21T05:18:20;29.30;;;10.57;;
51664;SDS011;37751;52.408;12.536;2024-02-21T05:20:52;26.63;;;10.00;;
51664;SDS011;37751;52.408;12.536;2024-02-21T05:23:23;30.13;;;9.80;;
51664;SDS011;37751;52.408;12.536;2024-02-21T05:25:56;28.90;;;11.20;;
51664;SDS011;37751;52.408;12.536;2024-02-21T05:28:28;31.03;;;10.77;;
51664;SDS011;37751;52.408;12.536;2024-02-21T05:30:59;26.53;;;10.20;;
51664;SDS011;37751;52.408;12.536;2024-02-21T05:33:30;28.43;;;10.73;;
51664;SDS011;37751;52.408;12.536;2024-02-21T05:36:01;30.85;;;10.27;;
51664;SDS011;37751;52.408;12.536;2024-02-21T05:38:34;19.90;;;10.23;;
51664;SDS011;37751;52.408;12.536;2024-02-21T05:41:08;23.10;;;9.97;;
51664;SDS011;37751;52.408;12.536;2024-02-21T05:43:39;24.48;;;10.43;;
51664;SDS011;37751;52.408;12.536;2024-02-21T05:46:11;24.03;;;11.40;;
51664;SDS011;37751;52.408;12.536;2024-02-21T05:48:42;29.10;;;10.25;;
51664;SDS011;37751;52.408;12.536;2024-02-21T05:51:13;25.30;;;10.70;;
51664;SDS011;37751;52.408;12.536;2024-02-21T05:53:44;27.13;;;9.50;;
51664;SDS011;37751;52.408;12.536;2024-02-21T05:56:18;27.67;;;11.00;;
51664;SDS011;37751;52.408;12.536;2024-02-21T05:58:50;29.55;;;9.90;;
51664;SDS011;37751;52.408;12.536;2024-02-21T06:01:21;27.60;;;10.38;;
51664;SDS011;37751;52.408;12.536;2024-02-21T06:03:52;23.67;;;9.13;;
51664;SDS011;37751;52.408;12.536;2024-02-21T06:06:24;27.55;;;9.73;;
51664;SDS011;37751;52.408;12.536;2024-02-21T06:08:55;23.83;;;9.60;;
51664;SDS011;37751;52.408;12.536;2024-02-21T06:11:30;24.08;;;9.85;;
51664;SDS011;37751;52.408;12.536;2024-02-21T06:14:06;30.08;;;10.02;;
51664;SDS011;37751;52.408;12.536;2024-02-21T06:16:37;29.95;;;10.45;;
51664;SDS011;37751;52.408;12.536;2024-02-21T06:19:08;25.50;;;9.73;;
51664;SDS011;37751;52.408;12.536;2024-02-21T06:21:44;25.90;;;10.32;;
51664;SDS011;37751;52.408;12.536;2024-02-21T06:24:15;27.48;;;10.00;;
51664;SDS011;37751;52.408;12.536;2024-02-21T06:26:49;24.85;;;10.32;;
51664;SDS011;37751;52.408;12.536;2024-02-21T06:29:22;25.33;;;10.02;;
51664;SDS011;37751;52.408;12.536;2024-02-21T06:31:53;26.55;;;10.02;;
51664;SDS011;37751;52.408;12.536;2024-02-21T06:34:24;22.75;;;10.05;;
51664;SDS011;37751;52.408;12.536;2024-02-21T06:37:00;21.77;;;9.30;;
51664;SDS011;37751;52.408;12.536;2024-02-21T06:39:31;21.73;;;8.73;;
51664;SDS011;37751;52.408;12.536;2024-02-21T06:42:07;20.90;;;8.70;;
51664;SDS011;37751;52.408;12.536;2024-02-21T06:44:38;26.88;;;9.25;;
51664;SDS011;37751;52.408;12.536;2024-02-21T06:47:14;22.25;;;8.85;;
51664;SDS011;37751;52.408;12.536;2024-02-21T06:49:48;23.97;;;9.23;;
51664;SDS011;37751;52.408;12.536;2024-02-21T06:52:20;21.77;;;8.10;;
51664;SDS011;37751;52.408;12.536;2024-02-21T06:54:52;26.67;;;8.50;;
51664;SDS011;37751;52.408;12.536;2024-02-21T06:57:25;17.70;;;8.18;;
51664;SDS011;37751;52.408;12.536;2024-02-21T06:59:57;22.48;;;8.23;;
51664;SDS011;37751;52.408;12.536;2024-02-21T07:02:28;22.77;;;9.20;;
51664;SDS011;37751;52.408;12.536;2024-02-21T07:04:59;23.30;;;9.07;;
51664;SDS011;37751;52.408;12.536;2024-02-21T07:07:30;25.63;;;8.32;;
51664;SDS011;37751;52.408;12.536;2024-02-21T07:10:02;21.40;;;9.02;;
51664;SDS011;37751;52.408;12.536;2024-02-21T07:12:37;19.50;;;7.93;;
51664;SDS011;37751;52.408;12.536;2024-02-21T07:15:10;24.13;;;8.95;;
51664;SDS011;37751;52.408;12.536;2024-02-21T07:17:41;26.90;;;9.60;;
51664;SDS011;37751;52.408;12.536;2024-02-21T07:20:13;15.98;;;7.70;;
51664;SDS011;37751;52.408;12.536;2024-02-21T07:22:44;27.00;;;9.55;;
51664;SDS011;37751;52.408;12.536;2024-02-21T07:25:15;19.10;;;8.52;;
51664;SDS011;37751;52.408;12.536;2024-02-21T07:27:49;28.27;;;9.35;;
51664;SDS011;37751;52.408;12.536;2024-02-21T07:30:20;19.05;;;8.73;;
51664;SDS011;37751;52.408;12.536;2024-02-21T07:32:51;23.15;;;11.65;;
51664;SDS011;37751;52.408;12.536;2024-02-21T07:35:23;24.85;;;9.57;;
51664;SDS011;37751;52.408;12.536;2024-02-21T07:37:54;21.55;;;9.93;;
51664;SDS011;37751;52.408;12.536;2024-02-21T07:40:25;25.40;;;10.47;;
51664;SDS011;37751;52.408;12.536;2024-02-21T07:42:59;26.60;;;9.70;;
51664;SDS011;37751;52.408;12.536;2024-02-21T07:45:31;22.25;;;9.13;;
51664;SDS011;37751;52.408;12.536;2024-02-21T07:48:02;23.35;;;9.70;;
51664;SDS011;37751;52.408;12.536;2024-02-21T07:50:34;24.60;;;10.57;;
51664;SDS011;37751;52.408;12.536;2024-02-21T07:53:06;26.73;;;10.15;;
51664;SDS011;37751;52.408;12.536;2024-02-21T07:55:38;21.05;;;10.05;;
51664;SDS011;37751;52.408;12.536;2024-02-21T07:58:12;22.55;;;10.85;;
51664;SDS011;37751;52.408;12.536;2024-02-21T08:00:43;25.45;;;10.73;;
51664;SDS011;37751;52.408;12.536;2024-02-21T08:03:16;20.08;;;10.02;;
51664;SDS011;37751;52.408;12.536;2024-02-21T08:05:48;27.83;;;11.23;;
51664;SDS011;37751;52.408;12.536;2024-02-21T08:08:19;22.30;;;10.80;;
51664;SDS011;37751;52.408;12.536;2024-02-21T08:10:52;25.65;;;10.60;;
51664;SDS011;37751;52.408;12.536;2024-02-21T08:13:26;26.10;;;11.35;;
51664;SDS011;37751;52.408;12.536;2024-02-21T08:15:58;25.10;;;11.23;;
51664;SDS011;37751;52.408;12.536;2024-02-21T08:18:30;22.38;;;10.88;;
51664;SDS011;37751;52.408;12.536;2024-02-21T08:21:04;24.70;;;10.45;;
51664;SDS011;37751;52.408;12.536;2024-02-21T08:23:35;23.38;;;11.38;;
51664;SDS011;37751;52.408;12.536;2024-02-21T08:26:06;23.33;;;11.48;;
51664;SDS011;37751;52.408;12.536;2024-02-21T08:28:40;27.05;;;11.85;;
51664;SDS011;37751;52.408;12.536;2024-02-21T08:31:11;25.50;;;11.77;;
51664;SDS011;37751;52.408;12.536;2024-02-21T08:33:51;20.98;;;10.95;;
51664;SDS011;37751;52.408;12.536;2024-02-21T08:36:23;26.35;;;11.70;;
51664;SDS011;37751;52.408;12.536;2024-02-21T08:38:55;26.70;;;12.52;;
51664;SDS011;37751;52.408;12.536;2024-02-21T08:41:27;26.05;;;11.13;;
51664;SDS011;37751;52.408;12.536;2024-02-21T08:44:23;24.85;;;11.20;;
51664;SDS011;37751;52.408;12.536;2024-02-21T08:46:56;27.98;;;11.82;;
51664;SDS011;37751;52.408;12.536;2024-02-21T08:49:31;20.70;;;11.18;;
51664;SDS011;37751;52.408;12.536;2024-02-21T08:52:03;25.95;;;10.93;;
51664;SDS011;37751;52.408;12.536;2024-02-21T08:54:37;23.95;;;12.35;;
51664;SDS011;37751;52.408;12.536;2024-02-21T08:57:12;22.80;;;11.02;;
51664;SDS011;37751;52.408;12.536;2024-02-21T08:59:49;25.85;;;12.05;;
51664;SDS011;37751;52.408;12.536;2024-02-21T09:02:20;21.63;;;12.10;;
51664;SDS011;37751;52.408;12.536;2024-02-21T09:04:52;28.02;;;12.30;;
51664;SDS011;37751;52.408;12.536;2024-02-21T09:07:24;23.00;;;10.77;;
51664;SDS011;37751;52.408;12.536;2024-02-21T09:09:55;24.40;;;11.55;;
51664;SDS011;37751;52.408;12.536;2024-02-21T09:12:34;26.75;;;10.23;;
51664;SDS011;37751;52.408;12.536;2024-02-21T09:15:09;25.73;;;11.52;;
51664;SDS011;37751;52.408;12.536;2024-02-21T09:17:41;28.02;;;11.48;;
51664;SDS011;37751;52.408;12.536;2024-02-21T09:20:14;22.40;;;9.93;;
51664;SDS011;37751;52.408;12.536;2024-02-21T09:22:46;24.15;;;10.10;;
51664;SDS011;37751;52.408;12.536;2024-02-21T09:25:20;20.48;;;9.88;;
51664;SDS011;37751;52.408;12.536;2024-02-21T09:27:51;19.88;;;9.98;;
51664;SDS011;37751;52.408;12.536;2024-02-21T09:30:28;23.65;;;9.60;;
51664;SDS011;37751;52.408;12.536;2024-02-21T09:33:00;18.45;;;7.75;;
51664;SDS011;37751;52.408;12.536;2024-02-21T09:35:32;22.55;;;9.48;;
51664;SDS011;37751;52.408;12.536;2024-02-21T09:38:04;15.75;;;8.40;;
51664;SDS011;37751;52.408;12.536;2024-02-21T09:40:36;22.25;;;8.88;;
51664;SDS011;37751;52.408;12.536;2024-02-21T09:43:09;22.65;;;9.60;;
51664;SDS011;37751;52.408;12.536;2024-02-21T09:45:44;20.52;;;10.07;;
51664;SDS011;37751;52.408;12.536;2024-02-21T09:48:30;15.48;;;8.82;;
51664;SDS011;37751;52.408;12.536;2024-02-21T09:51:16;20.17;;;9.18;;
51664;SDS011;37751;52.408;12.536;2024-02-21T09:53:49;25.27;;;8.45;;
51664;SDS011;37751;52.408;12.536;2024-02-21T09:56:37;21.50;;;9.48;;
51664;SDS011;37751;52.408;12.536;2024-02-21T09:59:08;19.48;;;9.35;;
51664;SDS011;37751;52.408;12.536;2024-02-21T10:01:44;21.15;;;8.90;;
51664;SDS011;37751;52.408;12.536;2024-02-21T10:04:21;20.58;;;8.13;;
51664;SDS011;37751;52.408;12.536;2024-02-21T10:06:55;18.33;;;8.15;;
51664;SDS011;37751;52.408;12.536;2024-02-21T10:09:27;22.35;;;9.15;;
51664;SDS011;37751;52.408;12.536;2024-02-21T10:12:09;23.23;;;8.20;;
51664;SDS011;37751;52.408;12.536;2024-02-21T10:14:44;21.42;;;8.02;;
51664;SDS011;37751;52.408;12.536;2024-02-21T10:17:19;18.50;;;7.03;;
51664;SDS011;37751;52.408;12.536;2024-02-21T10:19:51;13.40;;;7.45;;
51664;SDS011;37751;52.408;12.536;2024-02-21T10:22:23;13.25;;;7.40;;
51664;SDS011;37751;52.408;12.536;2024-02-21T10:25:06;19.75;;;8.13;;
51664;SDS011;37751;52.408;12.536;2024-02-21T10:27:38;17.30;;;7.78;;
51664;SDS011;37751;52.408;12.536;2024-02-21T10:30:13;15.00;;;7.40;;
51664;SDS011;37751;52.408;12.536;2024-02-21T10:32:51;12.85;;;7.32;;
51664;SDS011;37751;52.408;12.536;2024-02-21T10:35:27;15.60;;;6.85;;
51664;SDS011;37751;52.408;12.536;2024-02-21T10:38:01;17.55;;;7.68;;
51664;SDS011;37751;52.408;12.536;2024-02-21T10:40:33;16.77;;;6.47;;
51664;SDS011;37751;52.408;12.536;2024-02-21T10:43:11;20.45;;;5.95;;
51664;SDS011;37751;52.408;12.536;2024-02-21T10:45:46;16.98;;;7.13;;
51664;SDS011;37751;52.408;12.536;2024-02-21T10:48:26;15.02;;;6.40;;
51664;SDS011;37751;52.408;12.536;2024-02-21T10:51:08;13.23;;;6.47;;
51664;SDS011;37751;52.408;12.536;2024-02-21T10:53:54;20.73;;;7.60;;
51664;SDS011;37751;52.408;12.536;2024-02-21T10:56:47;12.80;;;5.68;;
51664;SDS011;37751;52.408;12.536;2024-02-21T10:59:22;13.07;;;5.88;;
51664;SDS011;37751;52.408;12.536;2024-02-21T11:01:54;12.52;;;5.97;;
51664;SDS011;37751;52.408;12.536;2024-02-21T11:04:31;11.30;;;4.85;;
51664;SDS011;37751;52.408;12.536;2024-02-21T11:07:05;12.90;;;5.63;;
51664;SDS011;37751;52.408;12.536;2024-02-21T11:09:40;8.98;;;4.53;;
51664;SDS011;37751;52.408;12.536;2024-02-21T11:12:23;15.70;;;4.93;;
51664;SDS011;37751;52.408;12.536;2024-02-21T11:15:03;12.70;;;4.63;;
51664;SDS011;37751;52.408;12.536;2024-02-21T11:17:37;14.32;;;4.38;;
51664;SDS011;37751;52.408;12.536;2024-02-21T11:20:21;13.43;;;4.40;;
51664;SDS011;37751;52.408;12.536;2024-02-21T11:23:04;12.80;;;4.85;;
51664;SDS011;37751;52.408;12.536;2024-02-21T11:25:35;15.68;;;4.88;;
51664;SDS011;37751;52.408;12.536;2024-02-21T11:28:06;11.40;;;4.53;;
51664;SDS011;37751;52.408;12.536;2024-02-21T11:30:39;14.80;;;5.07;;
51664;SDS011;37751;52.408;12.536;2024-02-21T11:33:11;9.73;;;4.72;;
51664;SDS011;37751;52.408;12.536;2024-02-21T11:35:45;13.23;;;4.70;;
51664;SDS011;37751;52.408;12.536;2024-02-21T11:38:22;11.35;;;4.03;;
51664;SDS011;37751;52.408;12.536;2024-02-21T11:40:53;12.80;;;4.47;;
51664;SDS011;37751;52.408;12.536;2024-02-21T11:43:25;16.25;;;4.95;;
51664;SDS011;37751;52.408;12.536;2024-02-21T11:46:00;12.88;;;4.75;;
51664;SDS011;37751;52.408;12.536;2024-02-21T11:48:33;9.95;;;3.88;;
51664;SDS011;37751;52.408;12.536;2024-02-21T11:51:07;8.60;;;4.20;;
51664;SDS011;37751;52.408;12.536;2024-02-21T11:53:38;14.52;;;4.63;;
51664;SDS011;37751;52.408;12.536;2024-02-21T11:56:26;14.32;;;5.07;;
51664;SDS011;37751;52.408;12.536;2024-02-21T11:58:58;10.80;;;5.05;;
51664;SDS011;37751;52.408;12.536;2024-02-21T12:01:30;10.80;;;5.15;;
51664;SDS011;37751;52.408;12.536;2024-02-21T12:04:02;12.90;;;5.38;;
51664;SDS011;37751;52.408;12.536;2024-02-21T12:06:37;9.57;;;4.30;;
51664;SDS011;37751;52.408;12.536;2024-02-21T12:09:10;9.65;;;3.67;;
51664;SDS011;37751;52.408;12.536;2024-02-21T12:11:45;10.50;;;3.72;;
51664;SDS011;37751;52.408;12.536;2024-02-21T12:14:27;10.70;;;3.53;;
51664;SDS011;37751;52.408;12.536;2024-02-21T12:17:00;8.23;;;3.03;;
51664;SDS011;37751;52.408;12.536;2024-02-21T12:19:34;11.65;;;4.68;;
51664;SDS011;37751;52.408;12.536;2024-02-21T12:22:08;17.65;;;4.82;;
51664;SDS011;37751;52.408;12.536;2024-02-21T12:24:47;9.75;;;4.68;;
51664;SDS011;37751;52.408;12.536;2024-02-21T12:27:19;10.90;;;4.75;;
51664;SDS011;37751;52.408;12.536;2024-02-21T12:29:52;11.68;;;4.57;;
51664;SDS011;37751;52.408;12.536;2024-02-21T12:32:23;14.68;;;4.60;;
51664;SDS011;37751;52.408;12.536;2024-02-21T12:34:57;8.82;;;3.13;;
51664;SDS011;37751;52.408;12.536;2024-02-21T12:37:32;14.07;;;4.43;;
51664;SDS011;37751;52.408;12.536;2024-02-21T12:40:06;8.48;;;3.67;;
51664;SDS011;37751;52.408;12.536;2024-02-21T12:42:42;11.05;;;4.40;;
51664;SDS011;37751;52.408;12.536;2024-02-21T12:45:14;12.73;;;4.25;;
51664;SDS011;37751;52.408;12.536;2024-02-21T12:47:52;7.50;;;3.65;;
51664;SDS011;37751;52.408;12.536;2024-02-21T12:50:33;8.82;;;4.32;;
51664;SDS011;37751;52.408;12.536;2024-02-21T12:53:16;11.70;;;4.65;;
51664;SDS011;37751;52.408;12.536;2024-02-21T12:56:06;8.45;;;3.17;;
51664;SDS011;37751;52.408;12.536;2024-02-21T12:58:42;10.15;;;3.53;;
51664;SDS011;37751;52.408;12.536;2024-02-21T13:01:17;11.10;;;3.90;;
51664;SDS011;37751;52.408;12.536;2024-02-21T13:03:50;11.27;;;3.88;;
51664;SDS011;37751;52.408;12.536;2024-02-21T13:06:23;6.15;;;3.38;;
51664;SDS011;37751;52.408;12.536;2024-02-21T13:09:00;9.85;;;3.67;;
51664;SDS011;37751;52.408;12.536;2024-02-21T13:11:36;9.20;;;4.15;;
51664;SDS011;37751;52.408;12.536;2024-02-21T13:14:11;8.98;;;3.22;;
51664;SDS011;37751;52.408;12.536;2024-02-21T13:16:43;8.75;;;3.47;;
51664;SDS011;37751;52.408;12.536;2024-02-21T13:22:35;6.68;;;3.17;;
51664;SDS011;37751;52.408;12.536;2024-02-21T13:25:09;6.40;;;2.70;;
51664;SDS011;37751;52.408;12.536;2024-02-21T13:27:42;8.52;;;3.03;;
51664;SDS011;37751;52.408;12.536;2024-02-21T13:30:14;7.35;;;2.90;;
51664;SDS011;37751;52.408;12.536;2024-02-21T13:32:46;7.68;;;2.85;;
51664;SDS011;37751;52.408;12.536;2024-02-21T13:35:17;9.10;;;2.90;;
51664;SDS011;37751;52.408;12.536;2024-02-21T13:37:48;9.60;;;3.08;;
51664;SDS011;37751;52.408;12.536;2024-02-21T13:40:23;9.95;;;3.67;;
51664;SDS011;37751;52.408;12.536;2024-02-21T13:42:57;8.88;;;3.83;;
51664;SDS011;37751;52.408;12.536;2024-02-21T13:45:29;9.40;;;2.88;;
51664;SDS011;37751;52.408;12.536;2024-02-21T13:48:00;5.72;;;2.65;;
51664;SDS011;37751;52.408;12.536;2024-02-21T13:50:33;9.68;;;2.83;;
51664;SDS011;37751;52.408;12.536;2024-02-21T13:53:09;8.93;;;3.08;;
51664;SDS011;37751;52.408;12.536;2024-02-21T13:55:43;6.40;;;3.50;;
51664;SDS011;37751;52.408;12.536;2024-02-21T13:58:14;8.18;;;3.22;;
51664;SDS011;37751;52.408;12.536;2024-02-21T14:00:48;13.98;;;3.65;;
51664;SDS011;37751;52.408;12.536;2024-02-21T14:03:21;9.25;;;3.10;;
51664;SDS011;37751;52.408;12.536;2024-02-21T14:05:53;6.93;;;4.03;;
51664;SDS011;37751;52.408;12.536;2024-02-21T14:08:24;9.73;;;3.40;;
51664;SDS011;37751;52.408;12.536;2024-02-21T14:10:58;10.65;;;3.42;;
51664;SDS011;37751;52.408;12.536;2024-02-21T14:13:33;9.95;;;3.10;;
51664;SDS011;37751;52.408;12.536;2024-02-21T14:16:08;7.03;;;3.30;;
51664;SDS011;37751;52.408;12.536;2024-02-21T14:18:42;13.02;;;3.40;;
51664;SDS011;37751;52.408;12.536;2024-02-21T14:21:13;7.32;;;3.20;;
51664;SDS011;37751;52.408;12.536;2024-02-21T14:23:45;7.03;;;2.90;;
51664;SDS011;37751;52.408;12.536;2024-02-21T14:26:19;8.25;;;3.03;;
51664;SDS011;37751;52.408;12.536;2024-02-21T14:28:52;8.88;;;4.03;;
51664;SDS011;37751;52.408;12.536;2024-02-21T14:31:24;10.93;;;4.65;;
51664;SDS011;37751;52.408;12.536;2024-02-21T14:33:57;11.02;;;4.07;;
51664;SDS011;37751;52.408;12.536;2024-02-21T14:36:30;10.30;;;4.28;;
51664;SDS011;37751;52.408;12.536;2024-02-21T14:39:02;12.98;;;4.20;;
51664;SDS011;37751;52.408;12.536;2024-02-21T14:41:36;11.38;;;3.85;;
51664;SDS011;37751;52.408;12.536;2024-02-21T14:44:08;12.77;;;4.53;;
51664;SDS011;37751;52.408;12.536;2024-02-21T14:46:42;11.88;;;3.83;;
51664;SDS011;37751;52.408;12.536;2024-02-21T14:49:13;11.73;;;4.47;;
51664;SDS011;37751;52.408;12.536;2024-02-21T14:51:47;12.82;;;4.75;;
51664;SDS011;37751;52.408;12.536;2024-02-21T14:54:19;13.07;;;4.95;;
51664;SDS011;37751;52.408;12.536;2024-02-21T14:56:53;10.38;;;4.35;;
51664;SDS011;37751;52.408;12.536;2024-02-21T14:59:25;11.38;;;4.28;;